createdAt,value
2022-11-04T00:01:28.786Z,2.45
2022-11-04T00:03:55.445Z,1.92
2022-11-04T00:06:22.174Z,1.70
2022-11-04T00:08:52.579Z,1.88
2022-11-04T00:11:37.495Z,1.50
2022-11-04T00:14:04.292Z,1.30
2022-11-04T00:16:49.391Z,1.70
2022-11-04T00:19:16.198Z,1.70
2022-11-04T00:22:01.303Z,1.60
2022-11-04T00:24:43.033Z,1.73
2022-11-04T00:27:28.756Z,1.30
2022-11-04T00:29:55.264Z,1.50
2022-11-04T00:32:43.785Z,1.58
2022-11-04T00:35:11.056Z,1.55
2022-11-04T00:37:38.117Z,1.90
2022-11-04T00:40:05.203Z,1.80
2022-11-04T00:42:31.945Z,2.17
2022-11-04T00:44:58.433Z,1.92
2022-11-04T00:47:25.109Z,2.80
2022-11-04T00:49:51.744Z,2.90
2022-11-04T00:52:18.386Z,2.88
2022-11-04T00:54:44.852Z,2.72
2022-11-04T00:57:11.669Z,2.55
2022-11-04T00:59:38.230Z,2.78
2022-11-04T01:02:04.875Z,2.75
2022-11-04T01:04:31.524Z,4.00
2022-11-04T01:06:57.983Z,2.95
2022-11-04T01:09:24.715Z,3.40
2022-11-04T01:11:51.225Z,3.70
2022-11-04T01:14:17.686Z,3.40
2022-11-04T01:16:44.178Z,3.22
2022-11-04T01:19:11.453Z,4.00
2022-11-04T01:21:38.242Z,4.25
2022-11-04T01:24:04.901Z,4.57
2022-11-04T01:26:31.750Z,6.07
2022-11-04T01:28:58.575Z,5.80
2022-11-04T01:31:26.610Z,4.47
2022-11-04T01:33:53.592Z,5.80
2022-11-04T01:36:20.410Z,4.95
2022-11-04T01:38:46.987Z,4.00
2022-11-04T01:41:18.565Z,4.85
2022-11-04T01:43:52.350Z,3.38
2022-11-04T01:46:34.305Z,3.55
2022-11-04T01:49:14.682Z,4.32
2022-11-04T01:51:41.844Z,3.72
2022-11-04T01:54:09.009Z,4.78
2022-11-04T01:56:35.872Z,3.90
2022-11-04T01:59:05.998Z,5.07
2022-11-04T02:01:32.857Z,5.22
2022-11-04T02:04:18.718Z,5.25
2022-11-04T02:06:48.730Z,4.50
2022-11-04T02:09:16.947Z,4.78
2022-11-04T02:12:02.195Z,3.50
2022-11-04T02:14:28.787Z,4.47
2022-11-04T02:16:58.729Z,3.78
2022-11-04T02:19:31.215Z,5.15
2022-11-04T02:22:06.895Z,4.32
2022-11-04T02:24:44.062Z,4.45
2022-11-04T02:27:25.877Z,4.20
2022-11-04T02:30:04.512Z,3.60
2022-11-04T02:32:40.505Z,3.50
2022-11-04T02:35:22.334Z,3.63
2022-11-04T02:38:04.722Z,3.03
2022-11-04T02:40:31.199Z,2.65
2022-11-04T02:43:00.545Z,3.05
2022-11-04T02:45:32.985Z,3.13
2022-11-04T02:48:18.940Z,3.40
2022-11-04T02:50:56.421Z,2.90
2022-11-04T02:53:36.954Z,3.25
2022-11-04T02:56:04.208Z,2.85
2022-11-04T02:58:32.897Z,2.60
2022-11-04T03:01:00.008Z,2.33
2022-11-04T03:03:28.370Z,2.67
2022-11-04T03:05:56.660Z,3.20
2022-11-04T03:08:27.177Z,2.53
2022-11-04T03:10:56.598Z,2.80
2022-11-04T03:13:43.331Z,2.97
2022-11-04T03:16:14.376Z,2.88
2022-11-04T03:18:49.843Z,3.38
2022-11-04T03:21:16.697Z,2.92
2022-11-04T03:23:43.711Z,2.58
2022-11-04T03:26:30.205Z,2.67
2022-11-04T03:29:12.089Z,3.00
2022-11-04T03:31:59.059Z,3.67
2022-11-04T03:34:25.533Z,3.40
2022-11-04T03:36:52.209Z,3.78
2022-11-04T03:39:18.682Z,3.30
2022-11-04T03:41:48.864Z,4.25
2022-11-04T03:44:15.350Z,3.58
2022-11-04T03:46:41.998Z,3.40
2022-11-04T03:49:09.273Z,3.25
2022-11-04T03:51:35.770Z,2.60
2022-11-04T03:54:02.335Z,2.95
2022-11-04T03:56:37.898Z,2.88
2022-11-04T03:59:07.449Z,2.90
2022-11-04T04:01:39.561Z,3.38
2022-11-04T04:04:24.886Z,3.03
2022-11-04T04:06:53.865Z,2.55
2022-11-04T04:09:39.017Z,3.35
2022-11-04T04:12:05.526Z,2.42
2022-11-04T04:14:40.145Z,2.38
2022-11-04T04:19:43.022Z,2.15
2022-11-04T04:22:15.834Z,2.90
2022-11-04T04:25:02.984Z,2.22
2022-11-04T04:27:33.714Z,2.20
2022-11-04T04:30:07.940Z,2.65
2022-11-04T04:32:40.376Z,2.83
2022-11-04T04:35:27.142Z,2.70
2022-11-04T04:38:16.782Z,2.70
2022-11-04T04:41:03.729Z,2.78
2022-11-04T04:43:53.553Z,2.25
2022-11-04T04:46:20.045Z,2.28
2022-11-04T04:48:46.459Z,2.50
2022-11-04T04:51:12.962Z,2.10
2022-11-04T04:53:39.537Z,2.35
2022-11-04T04:56:05.956Z,2.00
2022-11-04T04:58:32.406Z,2.47
2022-11-04T05:00:58.895Z,2.63
2022-11-04T05:03:25.442Z,2.92
2022-11-04T05:05:53.760Z,3.45
2022-11-04T05:08:22.769Z,3.65
2022-11-04T05:10:49.152Z,4.03
2022-11-04T05:13:29.494Z,3.33
2022-11-04T05:15:57.110Z,3.97
2022-11-04T05:18:23.542Z,3.63
2022-11-04T05:20:49.951Z,4.45
2022-11-04T05:23:16.430Z,3.88
2022-11-04T05:25:42.932Z,3.70
2022-11-04T05:28:10.478Z,3.80
2022-11-04T05:30:37.617Z,4.18
2022-11-04T05:33:05.355Z,3.95
2022-11-04T05:35:32.403Z,4.00
2022-11-04T05:37:58.883Z,4.35
2022-11-04T05:40:25.616Z,3.85
2022-11-04T05:42:52.094Z,3.83
2022-11-04T05:45:18.600Z,3.28
2022-11-04T05:47:45.037Z,3.30
2022-11-04T05:50:11.543Z,3.53
2022-11-04T05:52:38.062Z,4.38
2022-11-04T05:55:04.676Z,5.10
2022-11-04T05:57:31.152Z,6.22
2022-11-04T05:59:57.603Z,7.20
2022-11-04T06:02:24.130Z,6.32
2022-11-04T06:04:50.693Z,4.45
2022-11-04T06:07:17.093Z,4.60
2022-11-04T06:09:43.605Z,5.05
2022-11-04T06:12:11.563Z,6.00
2022-11-04T06:14:38.233Z,4.65
2022-11-04T06:17:04.743Z,4.88
2022-11-04T06:19:31.244Z,4.30
2022-11-04T06:21:57.926Z,4.93
2022-11-04T06:24:24.431Z,4.15
2022-11-04T06:26:50.897Z,5.82
2022-11-04T06:29:17.484Z,4.80
2022-11-04T06:31:43.941Z,5.05
2022-11-04T06:34:10.403Z,5.70
2022-11-04T06:36:36.944Z,5.68
2022-11-04T06:39:05.219Z,7.07
2022-11-04T06:41:31.881Z,7.72
2022-11-04T06:43:58.352Z,8.95
2022-11-04T06:46:40.367Z,7.50
2022-11-04T06:49:07.898Z,7.28
2022-11-04T06:51:34.380Z,7.45
2022-11-04T06:54:01.388Z,7.82
2022-11-04T06:56:27.878Z,9.93
2022-11-04T06:58:54.561Z,7.97
2022-11-04T07:01:22.680Z,8.95
2022-11-04T07:03:50.557Z,7.75
2022-11-04T07:06:17.225Z,7.68
2022-11-04T07:08:43.656Z,9.95
2022-11-04T07:11:10.211Z,7.95
2022-11-04T07:13:36.765Z,7.43
2022-11-04T07:16:04.866Z,7.07
2022-11-04T07:18:31.296Z,6.63
2022-11-04T07:20:58.618Z,6.93
2022-11-04T07:23:25.166Z,5.95
2022-11-04T07:25:51.643Z,7.05
2022-11-04T07:28:18.065Z,8.10
2022-11-04T07:30:44.528Z,7.47
2022-11-04T07:33:11.074Z,7.60
2022-11-04T07:35:37.570Z,8.90
2022-11-04T07:38:04.248Z,7.95
2022-11-04T07:40:31.236Z,8.85
2022-11-04T07:42:58.762Z,9.10
2022-11-04T07:45:35.167Z,8.95
2022-11-04T07:48:01.655Z,5.47
2022-11-04T07:50:28.150Z,6.07
2022-11-04T07:52:54.706Z,4.82
2022-11-04T07:55:21.488Z,4.57
2022-11-04T07:57:48.139Z,4.70
2022-11-04T08:00:16.336Z,4.45
2022-11-04T08:02:44.647Z,4.47
2022-11-04T08:05:11.990Z,4.45
2022-11-04T08:07:38.464Z,4.18
2022-11-04T08:10:05.490Z,5.05
2022-11-04T08:12:32.356Z,4.13
2022-11-04T08:14:59.345Z,4.90
2022-11-04T08:17:26.563Z,4.65
2022-11-04T08:19:58.392Z,5.88
2022-11-04T08:22:32.790Z,6.75
2022-11-04T08:25:00.224Z,9.48
2022-11-04T08:27:26.884Z,8.40
2022-11-04T08:29:53.481Z,9.02
2022-11-04T08:32:20.299Z,7.72
2022-11-04T08:34:46.867Z,6.93
2022-11-04T08:37:14.016Z,6.20
2022-11-04T08:39:40.670Z,5.68
2022-11-04T08:42:07.781Z,6.80
2022-11-04T08:44:35.698Z,6.95
2022-11-04T08:47:03.955Z,7.28
2022-11-04T08:49:31.056Z,8.57
2022-11-04T08:51:59.796Z,10.57
2022-11-04T08:54:27.077Z,10.35
2022-11-04T08:56:56.761Z,11.48
2022-11-04T08:59:24.970Z,9.88
2022-11-04T09:01:51.516Z,7.22
2022-11-04T09:04:22.426Z,8.32
2022-11-04T09:06:51.168Z,8.02
2022-11-04T09:09:18.062Z,7.38
2022-11-04T09:11:45.099Z,8.25
2022-11-04T09:14:11.749Z,8.98
2022-11-04T09:16:39.323Z,8.80
2022-11-04T09:19:07.125Z,7.78
2022-11-04T09:21:33.798Z,6.53
2022-11-04T09:24:00.298Z,6.63
2022-11-04T09:26:29.205Z,6.35
2022-11-04T09:28:56.453Z,4.97
2022-11-04T09:31:23.817Z,5.45
2022-11-04T09:33:50.706Z,4.55
2022-11-04T09:36:17.889Z,4.32
2022-11-04T09:38:45.176Z,4.22
2022-11-04T09:41:20.206Z,4.82
2022-11-04T09:43:58.341Z,6.57
2022-11-04T09:46:26.774Z,7.07
2022-11-04T09:48:55.228Z,5.70
2022-11-04T09:51:47.949Z,7.32
2022-11-04T09:54:20.917Z,5.28
2022-11-04T09:56:51.811Z,5.50
2022-11-04T09:59:29.744Z,5.90
2022-11-04T10:02:00.038Z,6.13
2022-11-04T10:04:45.714Z,6.43
2022-11-04T10:07:27.638Z,6.15
2022-11-04T10:09:55.862Z,4.97
2022-11-04T10:12:47.703Z,5.97
2022-11-04T10:15:21.082Z,5.30
2022-11-04T10:18:00.572Z,4.93
2022-11-04T10:20:49.407Z,4.88
2022-11-04T10:23:26.048Z,5.60
2022-11-04T10:25:56.714Z,5.55
2022-11-04T10:28:26.338Z,5.70
2022-11-04T10:30:52.903Z,6.70
2022-11-04T10:33:37.535Z,6.50
2022-11-04T10:36:06.207Z,5.35
2022-11-04T10:38:38.780Z,5.10
2022-11-04T10:41:17.769Z,5.15
2022-11-04T10:43:44.550Z,5.68
2022-11-04T10:46:11.143Z,5.28
2022-11-04T10:48:42.804Z,5.10
2022-11-04T10:51:09.332Z,6.00
2022-11-04T10:53:36.827Z,5.47
2022-11-04T10:56:19.716Z,5.75
2022-11-04T10:58:46.808Z,4.82
2022-11-04T11:01:27.208Z,5.90
2022-11-04T11:03:54.379Z,6.57
2022-11-04T11:06:34.345Z,5.35
2022-11-04T11:09:14.356Z,4.88
2022-11-04T11:11:45.249Z,5.18
2022-11-04T11:14:16.182Z,5.50
2022-11-04T11:16:42.675Z,5.13
2022-11-04T11:19:12.002Z,4.50
2022-11-04T11:21:47.905Z,5.15
2022-11-04T11:24:25.858Z,4.70
2022-11-04T11:26:56.696Z,4.40
2022-11-04T11:29:31.379Z,4.05
2022-11-04T11:31:59.148Z,4.60
2022-11-04T11:34:27.594Z,4.85
2022-11-04T11:36:55.299Z,5.65
2022-11-04T11:39:24.134Z,4.43
2022-11-04T11:41:53.450Z,4.93
2022-11-04T11:44:25.379Z,5.57
2022-11-04T11:46:54.682Z,3.90
2022-11-04T11:49:23.613Z,4.68
2022-11-04T11:51:50.790Z,3.72
2022-11-04T11:54:25.066Z,3.40
2022-11-04T12:02:55.810Z,4.38
2022-11-04T12:11:11.308Z,4.00
2022-11-04T12:13:44.189Z,4.05
2022-11-04T12:16:19.757Z,4.38
2022-11-04T12:18:59.382Z,4.60
2022-11-04T12:21:33.911Z,3.78
2022-11-04T12:24:10.353Z,3.40
2022-11-04T12:27:15.488Z,3.88
2022-11-04T12:29:51.571Z,3.45
2022-11-04T12:32:28.255Z,4.18
2022-11-04T12:35:15.751Z,4.38
2022-11-04T12:38:00.901Z,4.10
2022-11-04T12:40:33.377Z,4.78
2022-11-04T12:43:18.973Z,4.40
2022-11-04T12:45:48.475Z,5.05
2022-11-04T12:48:24.038Z,4.25
2022-11-04T12:50:59.424Z,7.03
2022-11-04T12:53:34.215Z,7.18
2022-11-04T12:56:06.476Z,7.70
2022-11-04T12:58:42.126Z,6.85
2022-11-04T13:01:30.300Z,5.07
2022-11-04T13:04:15.727Z,6.40
2022-11-04T13:06:44.658Z,7.15
2022-11-04T13:09:30.069Z,5.25
2022-11-04T13:12:00.827Z,5.28
2022-11-04T13:14:32.218Z,3.20
2022-11-04T13:17:05.200Z,2.22
2022-11-04T13:19:35.526Z,1.20
2022-11-04T13:22:06.039Z,1.50
2022-11-04T13:24:35.464Z,1.80
2022-11-04T13:27:03.829Z,2.88
2022-11-04T13:29:34.401Z,3.10
2022-11-04T13:32:22.354Z,4.63
2022-11-04T13:35:08.989Z,5.50
2022-11-04T13:37:39.687Z,4.28
2022-11-04T13:40:12.794Z,4.07
2022-11-04T13:42:42.313Z,4.03
2022-11-04T13:45:11.128Z,3.63
2022-11-04T13:47:43.964Z,2.10
2022-11-04T13:50:27.434Z,2.40
2022-11-04T13:52:54.003Z,2.92
2022-11-04T13:55:23.548Z,4.13
2022-11-04T13:57:50.082Z,2.65
2022-11-04T14:00:16.518Z,3.00
2022-11-04T14:02:47.517Z,3.33
2022-11-04T14:05:34.609Z,2.95
2022-11-04T14:08:01.144Z,4.25
2022-11-04T14:10:46.697Z,3.67
2022-11-04T14:13:42.417Z,3.45
2022-11-04T14:16:08.916Z,4.18
2022-11-04T14:18:42.076Z,3.63
2022-11-04T14:21:10.810Z,4.05
2022-11-04T14:23:38.698Z,2.38
2022-11-04T14:26:06.813Z,2.47
2022-11-04T14:28:35.050Z,2.47
2022-11-04T14:31:02.709Z,3.78
2022-11-04T14:33:38.267Z,3.58
2022-11-04T14:36:16.197Z,3.97
2022-11-04T14:38:43.003Z,3.85
2022-11-04T14:41:22.688Z,4.15
2022-11-04T14:43:49.376Z,4.18
2022-11-04T14:46:20.161Z,4.38
2022-11-04T14:48:53.121Z,4.10
2022-11-04T14:51:32.356Z,4.75
2022-11-04T14:54:22.218Z,4.80
2022-11-04T14:56:51.283Z,4.65
2022-11-04T14:59:21.878Z,4.95
2022-11-04T15:01:49.362Z,4.75
2022-11-04T15:04:26.981Z,5.00
2022-11-04T15:07:00.673Z,5.00
2022-11-04T15:09:40.315Z,4.55
2022-11-04T15:12:28.630Z,4.90
2022-11-04T15:14:55.661Z,4.60
2022-11-04T15:17:23.432Z,5.03
2022-11-04T15:19:51.887Z,5.65
2022-11-04T15:22:19.056Z,6.30
2022-11-04T15:24:45.702Z,5.85
2022-11-04T15:27:18.117Z,6.32
2022-11-04T15:29:54.479Z,4.20
2022-11-04T15:32:20.997Z,3.90
2022-11-04T15:34:47.672Z,3.78
2022-11-04T15:37:14.317Z,4.03
2022-11-04T15:39:43.518Z,5.28
2022-11-04T15:42:36.007Z,4.97
2022-11-04T15:45:20.027Z,5.03
2022-11-04T15:47:46.539Z,4.95
2022-11-04T15:50:23.342Z,5.70
2022-11-04T15:52:52.044Z,5.93
2022-11-04T15:55:21.001Z,5.45
2022-11-04T15:57:47.631Z,5.50
2022-11-04T16:00:14.097Z,6.45
2022-11-04T16:02:45.869Z,5.13
2022-11-04T16:05:12.431Z,5.82
2022-11-04T16:07:43.256Z,5.28
2022-11-04T16:10:39.917Z,5.53
2022-11-04T16:13:18.317Z,5.60
2022-11-04T16:15:46.688Z,5.88
2022-11-04T16:18:22.569Z,7.35
2022-11-04T16:20:50.463Z,6.63
2022-11-04T16:23:18.394Z,5.63
2022-11-04T16:25:44.926Z,7.10
2022-11-04T16:28:20.973Z,8.65
2022-11-04T16:31:07.652Z,10.55
2022-11-04T16:33:34.157Z,12.32
2022-11-04T16:36:00.619Z,10.88
2022-11-04T16:38:27.086Z,10.88
2022-11-04T16:40:53.578Z,12.50
2022-11-04T16:43:21.111Z,11.02
2022-11-04T16:45:53.502Z,9.18
2022-11-04T16:48:21.224Z,9.60
2022-11-04T16:50:48.936Z,8.23
2022-11-04T16:53:15.491Z,7.63
2022-11-04T16:55:43.043Z,7.57
2022-11-04T16:58:28.326Z,9.10
2022-11-04T17:00:54.957Z,7.57
2022-11-04T17:03:21.831Z,9.93
2022-11-04T17:05:53.809Z,9.93
2022-11-04T17:08:20.319Z,10.13
2022-11-04T17:10:46.824Z,11.68
2022-11-04T17:13:13.377Z,12.05
2022-11-04T17:15:39.930Z,13.52
2022-11-04T17:18:06.791Z,12.75
2022-11-04T17:20:33.394Z,10.35
2022-11-04T17:23:00.057Z,12.05
2022-11-04T17:25:27.732Z,12.13
2022-11-04T17:27:54.854Z,13.90
2022-11-04T17:30:22.507Z,13.63
2022-11-04T17:32:49.343Z,14.82
2022-11-04T17:35:16.618Z,16.23
2022-11-04T17:37:43.172Z,15.27
2022-11-04T17:40:13.626Z,17.63
2022-11-04T17:42:58.880Z,18.45
2022-11-04T17:45:25.390Z,14.00
2022-11-04T17:47:51.997Z,13.93
2022-11-04T17:50:18.554Z,15.63
2022-11-04T17:52:49.114Z,14.38
2022-11-04T17:55:18.123Z,17.58
2022-11-04T17:57:47.362Z,16.88
2022-11-04T18:00:14.540Z,17.05
2022-11-04T18:02:41.547Z,17.17
2022-11-04T18:05:08.538Z,17.60
2022-11-04T18:07:35.657Z,21.75
2022-11-04T18:10:02.186Z,21.65
2022-11-04T18:12:37.842Z,20.80
2022-11-04T18:15:05.361Z,19.05
2022-11-04T18:17:31.962Z,19.92
2022-11-04T18:19:58.806Z,18.05
2022-11-04T18:22:25.396Z,19.58
2022-11-04T18:24:51.959Z,19.55
2022-11-04T18:27:18.564Z,19.55
2022-11-04T18:29:45.076Z,18.73
2022-11-04T18:32:11.651Z,17.92
2022-11-04T18:34:38.131Z,18.90
2022-11-04T18:37:04.688Z,20.83
2022-11-04T18:39:31.202Z,21.83
2022-11-04T18:41:57.698Z,18.80
2022-11-04T18:44:24.193Z,19.13
2022-11-04T18:46:50.833Z,19.00
2022-11-04T18:49:17.757Z,19.05
2022-11-04T18:51:44.547Z,19.05
2022-11-04T18:54:11.537Z,19.75
2022-11-04T18:56:38.019Z,20.83
2022-11-04T18:59:04.519Z,19.15
2022-11-04T19:01:33.975Z,21.05
2022-11-04T19:04:00.636Z,22.65
2022-11-04T19:06:29.425Z,23.70
2022-11-04T19:09:05.121Z,24.17
2022-11-04T19:11:37.040Z,20.65
2022-11-04T19:14:09.253Z,24.67
2022-11-04T19:16:36.479Z,23.23
2022-11-04T19:19:05.104Z,23.83
2022-11-04T19:21:31.865Z,24.38
2022-11-04T19:24:00.009Z,25.88
2022-11-04T19:26:28.122Z,23.98
2022-11-04T19:28:55.557Z,24.98
2022-11-04T19:31:25.126Z,24.35
2022-11-04T19:33:52.028Z,25.63
2022-11-04T19:36:19.861Z,25.88
2022-11-04T19:38:46.409Z,24.38
2022-11-04T19:41:32.567Z,26.25
2022-11-04T19:44:00.476Z,25.73
2022-11-04T19:46:26.996Z,27.75
2022-11-04T19:48:53.581Z,27.55
2022-11-04T19:51:20.168Z,27.33
2022-11-04T19:53:46.902Z,26.88
2022-11-04T19:56:14.797Z,27.13
2022-11-04T19:58:41.909Z,27.75
2022-11-04T20:01:09.188Z,25.92
2022-11-04T20:03:36.092Z,27.58
2022-11-04T20:06:05.728Z,30.20
2022-11-04T20:08:32.905Z,30.30
2022-11-04T20:11:01.907Z,26.00
2022-11-04T20:13:47.286Z,32.83
2022-11-04T20:16:21.059Z,29.58
2022-11-04T20:18:49.248Z,30.55
2022-11-04T20:21:15.734Z,32.90
2022-11-04T20:23:42.230Z,32.65
2022-11-04T20:26:20.404Z,31.90
2022-11-04T20:28:47.576Z,30.30
2022-11-04T20:31:18.179Z,33.08
2022-11-04T20:33:45.259Z,31.60
2022-11-04T20:36:12.406Z,33.28
2022-11-04T20:38:39.069Z,29.98
2022-11-04T20:41:18.609Z,33.05
2022-11-04T20:43:48.827Z,30.88
2022-11-04T20:46:20.561Z,35.72
2022-11-04T20:48:47.721Z,33.22
2022-11-04T20:51:18.225Z,34.67
2022-11-04T20:53:45.672Z,31.15
2022-11-04T20:56:13.299Z,35.90
2022-11-04T20:58:40.741Z,35.22
2022-11-04T21:01:09.230Z,38.67
2022-11-04T21:03:36.185Z,34.55
2022-11-04T21:06:02.702Z,35.10
2022-11-04T21:08:29.226Z,33.47
2022-11-04T21:10:56.380Z,44.75
2022-11-04T21:13:23.100Z,34.22
2022-11-04T21:15:53.145Z,28.48
2022-11-04T21:18:19.661Z,39.13
2022-11-04T21:20:46.515Z,38.13
2022-11-04T21:23:13.855Z,43.88
2022-11-04T21:25:45.151Z,38.35
2022-11-04T21:28:13.415Z,44.42
2022-11-04T21:30:42.370Z,50.00
2022-11-04T21:33:09.184Z,37.25
2022-11-04T21:35:36.051Z,45.65
2022-11-04T21:38:03.542Z,44.95
2022-11-04T21:40:30.121Z,42.95
2022-11-04T21:42:57.991Z,39.65
2022-11-04T21:45:24.862Z,29.13
2022-11-04T21:47:51.400Z,37.47
2022-11-04T21:50:18.385Z,30.45
2022-11-04T21:52:48.028Z,31.30
2022-11-04T21:55:14.494Z,36.63
2022-11-04T21:57:40.970Z,28.27
2022-11-04T22:00:08.475Z,36.08
2022-11-04T22:02:38.798Z,36.50
2022-11-04T22:05:06.170Z,32.00
2022-11-04T22:07:51.081Z,36.83
2022-11-04T22:10:17.699Z,36.35
2022-11-04T22:12:50.024Z,32.60
2022-11-04T22:15:37.329Z,32.75
2022-11-04T22:18:03.931Z,35.30
2022-11-04T22:20:30.542Z,31.00
2022-11-04T22:22:57.084Z,37.15
2022-11-04T22:25:23.850Z,37.70
2022-11-04T22:27:50.758Z,28.63
2022-11-04T22:30:17.483Z,32.10
2022-11-04T22:32:44.139Z,30.83
2022-11-04T22:35:11.137Z,25.25
2022-11-04T22:37:37.693Z,30.05
2022-11-04T22:40:04.377Z,35.72
2022-11-04T22:42:30.894Z,27.40
2022-11-04T22:44:57.339Z,24.60
2022-11-04T22:47:23.804Z,24.42
2022-11-04T22:49:50.312Z,26.35
2022-11-04T22:52:16.780Z,30.73
2022-11-04T22:54:43.299Z,31.08
2022-11-04T22:57:09.765Z,32.72
2022-11-04T22:59:36.250Z,27.40
2022-11-04T23:02:03.385Z,39.47
2022-11-04T23:04:29.920Z,25.45
2022-11-04T23:06:56.477Z,41.90
2022-11-04T23:09:23.740Z,48.50
2022-11-04T23:12:08.982Z,34.42
2022-11-04T23:14:54.131Z,32.03
2022-11-04T23:17:40.301Z,36.15
2022-11-04T23:20:11.595Z,24.35
2022-11-04T23:22:56.792Z,22.25
2022-11-04T23:25:23.506Z,26.20
2022-11-04T23:28:09.643Z,36.83
2022-11-04T23:30:39.772Z,25.52
2022-11-04T23:33:07.598Z,26.02
2022-11-04T23:35:54.288Z,25.85
2022-11-04T23:38:21.087Z,30.67
2022-11-04T23:41:07.365Z,21.08
2022-11-04T23:43:34.221Z,24.92
2022-11-04T23:46:21.895Z,25.02
2022-11-04T23:49:07.192Z,26.33
2022-11-04T23:51:52.530Z,26.23
2022-11-04T23:54:37.692Z,27.08
2022-11-04T23:57:23.462Z,29.48
